sensor_id;sensor_type;location;lat;lon;timestamp;pressure;altitude;pressure_sealevel;temperature;humidity
52319;BME280;38258;51.148;14.068;2023-08-06T00:01:38;97555.53;;;14.62;100.00
52319;BME280;38258;51.148;14.068;2023-08-06T00:04:05;97547.56;;;14.64;100.00
52319;BME280;38258;51.148;14.068;2023-08-06T00:06:32;97552.84;;;14.48;100.00
52319;BME280;38258;51.148;14.068;2023-08-06T00:08:58;97551.16;;;14.47;100.00
52319;BME280;38258;51.148;14.068;2023-08-06T00:11:25;97539.41;;;14.38;100.00
52319;BME280;38258;51.148;14.068;2023-08-06T00:13:52;97534.81;;;14.56;100.00
52319;BME280;38258;51.148;14.068;2023-08-06T00:16:20;97524.59;;;14.51;100.00
52319;BME280;38258;51.148;14.068;2023-08-06T00:18:46;97518.69;;;14.32;100.00
52319;BME280;38258;51.148;14.068;2023-08-06T00:21:12;97520.94;;;14.23;100.00
52319;BME280;38258;51.148;14.068;2023-08-06T00:23:39;97520.56;;;14.30;100.00
52319;BME280;38258;51.148;14.068;2023-08-06T00:26:06;97510.28;;;14.41;100.00
52319;BME280;38258;51.148;14.068;2023-08-06T00:28:33;97516.84;;;14.48;100.00
52319;BME280;38258;51.148;14.068;2023-08-06T00:30:59;97526.13;;;14.39;100.00
52319;BME280;38258;51.148;14.068;2023-08-06T00:33:28;97521.28;;;14.48;100.00
52319;BME280;38258;51.148;14.068;2023-08-06T00:35:55;97514.59;;;14.42;100.00
52319;BME280;38258;51.148;14.068;2023-08-06T00:38:22;97516.34;;;14.41;100.00
52319;BME280;38258;51.148;14.068;2023-08-06T00:40:48;97515.28;;;14.46;100.00
52319;BME280;38258;51.148;14.068;2023-08-06T00:43:15;97522.31;;;14.45;100.00
52319;BME280;38258;51.148;14.068;2023-08-06T00:45:43;97518.91;;;14.43;100.00
52319;BME280;38258;51.148;14.068;2023-08-06T00:48:10;97518.44;;;14.36;100.00
52319;BME280;38258;51.148;14.068;2023-08-06T00:50:38;97515.59;;;14.39;100.00
52319;BME280;38258;51.148;14.068;2023-08-06T00:53:05;97518.25;;;14.39;100.00
52319;BME280;38258;51.148;14.068;2023-08-06T00:55:33;97508.66;;;14.38;100.00
52319;BME280;38258;51.148;14.068;2023-08-06T00:58:00;97507.81;;;14.38;100.00
52319;BME280;38258;51.148;14.068;2023-08-06T01:00:28;97503.00;;;14.30;100.00
52319;BME280;38258;51.148;14.068;2023-08-06T01:02:55;97497.63;;;14.32;100.00
52319;BME280;38258;51.148;14.068;2023-08-06T01:05:22;97498.84;;;14.26;100.00
52319;BME280;38258;51.148;14.068;2023-08-06T01:08:08;97486.38;;;14.30;100.00
52319;BME280;38258;51.148;14.068;2023-08-06T01:10:43;97483.47;;;14.34;100.00
52319;BME280;38258;51.148;14.068;2023-08-06T01:13:24;97478.13;;;14.36;100.00
52319;BME280;38258;51.148;14.068;2023-08-06T01:15:55;97475.50;;;14.36;100.00
52319;BME280;38258;51.148;14.068;2023-08-06T01:18:23;97466.75;;;14.35;100.00
52319;BME280;38258;51.148;14.068;2023-08-06T01:20:51;97464.38;;;14.31;100.00
52319;BME280;38258;51.148;14.068;2023-08-06T01:23:18;97460.31;;;14.25;100.00
52319;BME280;38258;51.148;14.068;2023-08-06T01:25:49;97451.38;;;14.13;100.00
52319;BME280;38258;51.148;14.068;2023-08-06T01:28:25;97439.47;;;14.22;100.00
52319;BME280;38258;51.148;14.068;2023-08-06T01:30:55;97444.28;;;14.30;100.00
52319;BME280;38258;51.148;14.068;2023-08-06T01:33:28;97430.25;;;14.14;100.00
52319;BME280;38258;51.148;14.068;2023-08-06T01:36:00;97429.59;;;14.11;100.00
52319;BME280;38258;51.148;14.068;2023-08-06T01:38:27;97414.25;;;14.03;100.00
52319;BME280;38258;51.148;14.068;2023-08-06T01:40:54;97413.84;;;13.95;100.00
52319;BME280;38258;51.148;14.068;2023-08-06T01:43:21;97411.81;;;14.00;100.00
52319;BME280;38258;51.148;14.068;2023-08-06T01:45:48;97409.75;;;14.05;100.00
52319;BME280;38258;51.148;14.068;2023-08-06T01:48:15;97410.94;;;13.99;100.00
52319;BME280;38258;51.148;14.068;2023-08-06T01:50:41;97407.56;;;13.97;100.00
52319;BME280;38258;51.148;14.068;2023-08-06T01:53:10;97412.84;;;13.97;100.00
52319;BME280;38258;51.148;14.068;2023-08-06T01:55:37;97407.25;;;13.88;100.00
52319;BME280;38258;51.148;14.068;2023-08-06T01:58:03;97408.78;;;13.92;100.00
52319;BME280;38258;51.148;14.068;2023-08-06T02:00:30;97414.59;;;13.97;100.00
52319;BME280;38258;51.148;14.068;2023-08-06T02:02:57;97409.34;;;13.97;100.00
52319;BME280;38258;51.148;14.068;2023-08-06T02:05:24;97417.38;;;14.10;100.00
52319;BME280;38258;51.148;14.068;2023-08-06T02:07:50;97417.88;;;14.17;100.00
52319;BME280;38258;51.148;14.068;2023-08-06T02:10:19;97431.09;;;14.15;100.00
52319;BME280;38258;51.148;14.068;2023-08-06T02:12:45;97428.28;;;14.18;100.00
52319;BME280;38258;51.148;14.068;2023-08-06T02:15:12;97428.19;;;14.20;100.00
52319;BME280;38258;51.148;14.068;2023-08-06T02:17:39;97421.19;;;14.20;100.00
52319;BME280;38258;51.148;14.068;2023-08-06T02:20:07;97419.44;;;14.19;100.00
52319;BME280;38258;51.148;14.068;2023-08-06T02:22:34;97415.44;;;14.13;100.00
52319;BME280;38258;51.148;14.068;2023-08-06T02:25:00;97409.31;;;14.13;100.00
52319;BME280;38258;51.148;14.068;2023-08-06T02:27:28;97413.50;;;14.01;100.00
52319;BME280;38258;51.148;14.068;2023-08-06T02:29:56;97406.75;;;14.11;100.00
52319;BME280;38258;51.148;14.068;2023-08-06T02:32:22;97406.19;;;14.06;100.00
52319;BME280;38258;51.148;14.068;2023-08-06T02:34:49;97400.44;;;13.99;100.00
52319;BME280;38258;51.148;14.068;2023-08-06T02:37:16;97394.72;;;14.07;100.00
52319;BME280;38258;51.148;14.068;2023-08-06T02:39:44;97387.59;;;14.09;100.00
52319;BME280;38258;51.148;14.068;2023-08-06T02:42:11;97390.41;;;14.06;100.00
52319;BME280;38258;51.148;14.068;2023-08-06T02:44:40;97382.53;;;14.06;100.00
52319;BME280;38258;51.148;14.068;2023-08-06T02:47:07;97377.72;;;13.98;100.00
52319;BME280;38258;51.148;14.068;2023-08-06T02:49:34;97380.72;;;13.92;100.00
52319;BME280;38258;51.148;14.068;2023-08-06T02:52:01;97387.81;;;13.90;100.00
52319;BME280;38258;51.148;14.068;2023-08-06T02:54:27;97388.69;;;13.91;100.00
52319;BME280;38258;51.148;14.068;2023-08-06T02:56:54;97390.19;;;13.95;100.00
52319;BME280;38258;51.148;14.068;2023-08-06T02:59:28;97392.63;;;13.98;100.00
52319;BME280;38258;51.148;14.068;2023-08-06T03:02:07;97380.41;;;13.97;100.00
52319;BME280;38258;51.148;14.068;2023-08-06T03:04:43;97386.91;;;14.06;100.00
52319;BME280;38258;51.148;14.068;2023-08-06T03:07:11;97377.81;;;14.11;100.00
52319;BME280;38258;51.148;14.068;2023-08-06T03:09:50;97377.53;;;14.02;100.00
52319;BME280;38258;51.148;14.068;2023-08-06T03:12:18;97373.97;;;14.03;100.00
52319;BME280;38258;51.148;14.068;2023-08-06T03:14:44;97374.22;;;13.98;100.00
52319;BME280;38258;51.148;14.068;2023-08-06T03:17:13;97367.91;;;13.86;100.00
52319;BME280;38258;51.148;14.068;2023-08-06T03:19:40;97367.69;;;13.75;100.00
52319;BME280;38258;51.148;14.068;2023-08-06T03:22:07;97368.94;;;13.83;100.00
52319;BME280;38258;51.148;14.068;2023-08-06T03:24:36;97357.94;;;13.77;100.00
52319;BME280;38258;51.148;14.068;2023-08-06T03:27:03;97359.47;;;13.81;100.00
52319;BME280;38258;51.148;14.068;2023-08-06T03:29:30;97350.66;;;13.66;100.00
52319;BME280;38258;51.148;14.068;2023-08-06T03:32:00;97348.72;;;13.69;100.00
52319;BME280;38258;51.148;14.068;2023-08-06T03:34:28;97345.03;;;13.57;100.00
52319;BME280;38258;51.148;14.068;2023-08-06T03:36:56;97342.09;;;13.62;100.00
52319;BME280;38258;51.148;14.068;2023-08-06T03:39:22;97341.22;;;13.63;100.00
52319;BME280;38258;51.148;14.068;2023-08-06T03:41:49;97337.56;;;13.80;100.00
52319;BME280;38258;51.148;14.068;2023-08-06T03:44:16;97338.94;;;13.88;100.00
52319;BME280;38258;51.148;14.068;2023-08-06T03:46:43;97333.28;;;13.94;100.00
52319;BME280;38258;51.148;14.068;2023-08-06T03:49:10;97329.53;;;13.98;100.00
52319;BME280;38258;51.148;14.068;2023-08-06T03:51:38;97318.28;;;13.96;100.00
52319;BME280;38258;51.148;14.068;2023-08-06T03:54:05;97320.16;;;13.94;100.00
52319;BME280;38258;51.148;14.068;2023-08-06T03:56:31;97324.28;;;13.98;100.00
52319;BME280;38258;51.148;14.068;2023-08-06T03:58:59;97317.81;;;14.04;100.00
52319;BME280;38258;51.148;14.068;2023-08-06T04:01:26;97322.06;;;14.06;100.00
52319;BME280;38258;51.148;14.068;2023-08-06T04:03:53;97310.78;;;14.04;100.00
52319;BME280;38258;51.148;14.068;2023-08-06T04:06:20;97311.72;;;14.03;100.00
52319;BME280;38258;51.148;14.068;2023-08-06T04:08:48;97307.88;;;14.09;100.00
52319;BME280;38258;51.148;14.068;2023-08-06T04:11:14;97300.34;;;14.03;100.00
52319;BME280;38258;51.148;14.068;2023-08-06T04:13:42;97294.91;;;14.06;100.00
52319;BME280;38258;51.148;14.068;2023-08-06T04:16:09;97301.41;;;14.00;100.00
52319;BME280;38258;51.148;14.068;2023-08-06T04:18:36;97290.00;;;13.85;100.00
52319;BME280;38258;51.148;14.068;2023-08-06T04:21:03;97292.84;;;13.96;100.00
52319;BME280;38258;51.148;14.068;2023-08-06T04:23:29;97288.81;;;14.05;100.00
52319;BME280;38258;51.148;14.068;2023-08-06T04:26:02;97290.88;;;14.00;100.00
52319;BME280;38258;51.148;14.068;2023-08-06T04:28:32;97280.94;;;14.05;100.00
52319;BME280;38258;51.148;14.068;2023-08-06T04:30:59;97288.44;;;14.11;100.00
52319;BME280;38258;51.148;14.068;2023-08-06T04:33:27;97280.53;;;14.11;100.00
52319;BME280;38258;51.148;14.068;2023-08-06T04:35:56;97279.53;;;14.14;100.00
52319;BME280;38258;51.148;14.068;2023-08-06T04:38:24;97276.22;;;14.10;100.00
52319;BME280;38258;51.148;14.068;2023-08-06T04:40:51;97269.38;;;14.08;100.00
52319;BME280;38258;51.148;14.068;2023-08-06T04:43:20;97260.44;;;14.10;100.00
52319;BME280;38258;51.148;14.068;2023-08-06T04:45:48;97265.69;;;13.96;100.00
52319;BME280;38258;51.148;14.068;2023-08-06T04:48:15;97261.97;;;14.00;100.00
52319;BME280;38258;51.148;14.068;2023-08-06T04:50:46;97260.84;;;14.04;100.00
52319;BME280;38258;51.148;14.068;2023-08-06T04:53:13;97256.88;;;14.11;100.00
52319;BME280;38258;51.148;14.068;2023-08-06T04:55:39;97252.00;;;14.20;100.00
52319;BME280;38258;51.148;14.068;2023-08-06T04:58:06;97252.28;;;14.30;100.00
52319;BME280;38258;51.148;14.068;2023-08-06T05:00:34;97252.47;;;14.26;100.00
52319;BME280;38258;51.148;14.068;2023-08-06T05:03:01;97239.31;;;14.26;100.00
52319;BME280;38258;51.148;14.068;2023-08-06T05:05:28;97240.00;;;14.30;100.00
52319;BME280;38258;51.148;14.068;2023-08-06T05:07:57;97249.78;;;14.13;100.00
52319;BME280;38258;51.148;14.068;2023-08-06T05:10:24;97251.81;;;14.23;100.00
52319;BME280;38258;51.148;14.068;2023-08-06T05:12:51;97247.03;;;14.30;100.00
52319;BME280;38258;51.148;14.068;2023-08-06T05:15:18;97244.50;;;14.13;100.00
52319;BME280;38258;51.148;14.068;2023-08-06T05:17:46;97249.94;;;14.10;100.00
52319;BME280;38258;51.148;14.068;2023-08-06T05:20:13;97247.97;;;14.28;100.00
52319;BME280;38258;51.148;14.068;2023-08-06T05:22:40;97249.47;;;14.18;100.00
52319;BME280;38258;51.148;14.068;2023-08-06T05:25:07;97249.00;;;14.26;100.00
52319;BME280;38258;51.148;14.068;2023-08-06T05:27:34;97240.63;;;14.34;100.00
52319;BME280;38258;51.148;14.068;2023-08-06T05:30:00;97238.28;;;14.44;100.00
52319;BME280;38258;51.148;14.068;2023-08-06T05:32:27;97235.09;;;14.24;100.00
52319;BME280;38258;51.148;14.068;2023-08-06T05:34:55;97222.31;;;14.32;100.00
52319;BME280;38258;51.148;14.068;2023-08-06T05:37:22;97227.47;;;14.19;100.00
52319;BME280;38258;51.148;14.068;2023-08-06T05:39:49;97227.31;;;13.93;100.00
52319;BME280;38258;51.148;14.068;2023-08-06T05:42:16;97230.50;;;14.13;100.00
52319;BME280;38258;51.148;14.068;2023-08-06T05:44:43;97227.00;;;14.27;100.00
52319;BME280;38258;51.148;14.068;2023-08-06T05:47:10;97218.34;;;14.39;100.00
52319;BME280;38258;51.148;14.068;2023-08-06T05:49:37;97225.44;;;14.24;100.00
52319;BME280;38258;51.148;14.068;2023-08-06T05:52:06;97230.28;;;14.31;100.00
52319;BME280;38258;51.148;14.068;2023-08-06T05:54:33;97229.34;;;14.46;100.00
52319;BME280;38258;51.148;14.068;2023-08-06T05:57:00;97231.25;;;14.30;100.00
52319;BME280;38258;51.148;14.068;2023-08-06T05:59:27;97226.66;;;14.19;100.00
52319;BME280;38258;51.148;14.068;2023-08-06T06:01:54;97224.56;;;14.38;100.00
52319;BME280;38258;51.148;14.068;2023-08-06T06:04:21;97223.06;;;14.34;100.00
52319;BME280;38258;51.148;14.068;2023-08-06T06:06:47;97230.41;;;14.44;100.00
52319;BME280;38258;51.148;14.068;2023-08-06T06:09:15;97227.59;;;14.32;100.00
52319;BME280;38258;51.148;14.068;2023-08-06T06:11:42;97224.16;;;14.59;100.00
52319;BME280;38258;51.148;14.068;2023-08-06T06:14:09;97225.75;;;14.47;100.00
52319;BME280;38258;51.148;14.068;2023-08-06T06:16:36;97228.31;;;14.49;100.00
52319;BME280;38258;51.148;14.068;2023-08-06T06:19:02;97232.09;;;14.45;100.00
52319;BME280;38258;51.148;14.068;2023-08-06T06:21:29;97234.72;;;14.45;100.00
52319;BME280;38258;51.148;14.068;2023-08-06T06:23:56;97233.34;;;14.66;100.00
52319;BME280;38258;51.148;14.068;2023-08-06T06:26:24;97226.59;;;14.77;100.00
52319;BME280;38258;51.148;14.068;2023-08-06T06:28:51;97224.16;;;14.74;100.00
52319;BME280;38258;51.148;14.068;2023-08-06T06:31:18;97224.56;;;14.95;100.00
52319;BME280;38258;51.148;14.068;2023-08-06T06:33:44;97223.41;;;14.72;100.00
52319;BME280;38258;51.148;14.068;2023-08-06T06:36:11;97225.72;;;14.76;100.00
52319;BME280;38258;51.148;14.068;2023-08-06T06:38:38;97224.63;;;14.66;100.00
52319;BME280;38258;51.148;14.068;2023-08-06T06:41:05;97217.72;;;15.05;100.00
52319;BME280;38258;51.148;14.068;2023-08-06T06:43:33;97224.97;;;14.74;100.00
52319;BME280;38258;51.148;14.068;2023-08-06T06:46:00;97224.84;;;14.90;100.00
52319;BME280;38258;51.148;14.068;2023-08-06T06:48:27;97225.91;;;15.15;100.00
52319;BME280;38258;51.148;14.068;2023-08-06T06:50:54;97229.13;;;15.06;100.00
52319;BME280;38258;51.148;14.068;2023-08-06T06:53:21;97230.28;;;15.02;100.00
52319;BME280;38258;51.148;14.068;2023-08-06T06:55:52;97221.63;;;15.00;100.00
52319;BME280;38258;51.148;14.068;2023-08-06T06:58:19;97231.41;;;14.97;100.00
52319;BME280;38258;51.148;14.068;2023-08-06T07:00:48;97228.97;;;14.94;100.00
52319;BME280;38258;51.148;14.068;2023-08-06T07:03:15;97236.47;;;15.01;100.00
52319;BME280;38258;51.148;14.068;2023-08-06T07:05:43;97236.13;;;14.92;100.00
52319;BME280;38258;51.148;14.068;2023-08-06T07:08:09;97232.97;;;14.87;100.00
52319;BME280;38258;51.148;14.068;2023-08-06T07:10:36;97228.94;;;14.81;100.00
52319;BME280;38258;51.148;14.068;2023-08-06T07:13:03;97228.41;;;15.17;100.00
52319;BME280;38258;51.148;14.068;2023-08-06T07:15:30;97233.72;;;15.02;100.00
52319;BME280;38258;51.148;14.068;2023-08-06T07:17:58;97232.09;;;14.87;100.00
52319;BME280;38258;51.148;14.068;2023-08-06T07:20:25;97242.75;;;14.85;100.00
52319;BME280;38258;51.148;14.068;2023-08-06T07:22:54;97242.03;;;14.96;100.00
52319;BME280;38258;51.148;14.068;2023-08-06T07:25:21;97239.59;;;15.20;100.00
52319;BME280;38258;51.148;14.068;2023-08-06T07:27:48;97220.63;;;15.15;100.00
52319;BME280;38258;51.148;14.068;2023-08-06T07:30:14;97233.28;;;14.95;100.00
52319;BME280;38258;51.148;14.068;2023-08-06T07:32:41;97217.78;;;14.91;100.00
52319;BME280;38258;51.148;14.068;2023-08-06T07:35:09;97214.91;;;14.66;100.00
52319;BME280;38258;51.148;14.068;2023-08-06T07:37:37;97226.75;;;14.88;100.00
52319;BME280;38258;51.148;14.068;2023-08-06T07:40:05;97222.09;;;14.92;100.00
52319;BME280;38258;51.148;14.068;2023-08-06T07:42:32;97225.06;;;14.87;100.00
52319;BME280;38258;51.148;14.068;2023-08-06T07:44:59;97211.53;;;15.06;100.00
52319;BME280;38258;51.148;14.068;2023-08-06T07:47:25;97220.78;;;14.99;100.00
52319;BME280;38258;51.148;14.068;2023-08-06T07:49:52;97207.56;;;15.26;100.00
52319;BME280;38258;51.148;14.068;2023-08-06T07:52:20;97208.13;;;15.45;100.00
52319;BME280;38258;51.148;14.068;2023-08-06T07:54:47;97209.50;;;15.50;100.00
52319;BME280;38258;51.148;14.068;2023-08-06T07:57:14;97201.50;;;15.78;100.00
52319;BME280;38258;51.148;14.068;2023-08-06T07:59:41;97203.00;;;15.56;100.00
52319;BME280;38258;51.148;14.068;2023-08-06T08:02:07;97198.47;;;15.84;100.00
52319;BME280;38258;51.148;14.068;2023-08-06T08:04:34;97195.09;;;15.95;100.00
52319;BME280;38258;51.148;14.068;2023-08-06T08:07:01;97200.69;;;15.64;100.00
52319;BME280;38258;51.148;14.068;2023-08-06T08:09:29;97187.59;;;15.63;100.00
52319;BME280;38258;51.148;14.068;2023-08-06T08:11:56;97192.53;;;15.54;100.00
52319;BME280;38258;51.148;14.068;2023-08-06T08:14:24;97194.59;;;15.90;100.00
52319;BME280;38258;51.148;14.068;2023-08-06T08:16:51;97188.22;;;15.79;100.00
52319;BME280;38258;51.148;14.068;2023-08-06T08:19:17;97184.97;;;15.63;100.00
52319;BME280;38258;51.148;14.068;2023-08-06T08:21:45;97183.81;;;15.54;100.00
52319;BME280;38258;51.148;14.068;2023-08-06T08:24:11;97184.84;;;15.51;100.00
52319;BME280;38258;51.148;14.068;2023-08-06T08:26:39;97171.69;;;16.03;100.00
52319;BME280;38258;51.148;14.068;2023-08-06T08:29:06;97167.34;;;16.15;100.00
52319;BME280;38258;51.148;14.068;2023-08-06T08:31:33;97170.88;;;16.27;100.00
52319;BME280;38258;51.148;14.068;2023-08-06T08:34:04;97163.88;;;15.89;100.00
52319;BME280;38258;51.148;14.068;2023-08-06T08:36:31;97167.06;;;15.94;100.00
52319;BME280;38258;51.148;14.068;2023-08-06T08:38:58;97164.81;;;15.75;100.00
52319;BME280;38258;51.148;14.068;2023-08-06T08:41:25;97155.56;;;15.56;100.00
52319;BME280;38258;51.148;14.068;2023-08-06T08:43:56;97159.97;;;15.81;100.00
52319;BME280;38258;51.148;14.068;2023-08-06T08:46:26;97162.41;;;15.72;100.00
52319;BME280;38258;51.148;14.068;2023-08-06T08:48:53;97151.75;;;15.60;100.00
52319;BME280;38258;51.148;14.068;2023-08-06T08:51:20;97154.47;;;15.84;100.00
52319;BME280;38258;51.148;14.068;2023-08-06T08:53:49;97156.72;;;15.91;100.00
52319;BME280;38258;51.148;14.068;2023-08-06T08:56:16;97148.59;;;15.81;100.00
52319;BME280;38258;51.148;14.068;2023-08-06T08:58:43;97144.66;;;16.13;100.00
52319;BME280;38258;51.148;14.068;2023-08-06T09:01:12;97141.13;;;16.38;100.00
52319;BME280;38258;51.148;14.068;2023-08-06T09:03:41;97143.19;;;15.82;100.00
52319;BME280;38258;51.148;14.068;2023-08-06T09:06:10;97135.28;;;15.82;100.00
52319;BME280;38258;51.148;14.068;2023-08-06T09:08:44;97142.50;;;15.93;100.00
52319;BME280;38258;51.148;14.068;2023-08-06T09:11:13;97142.91;;;15.48;100.00
52319;BME280;38258;51.148;14.068;2023-08-06T09:13:40;97142.06;;;15.61;100.00
52319;BME280;38258;51.148;14.068;2023-08-06T09:16:07;97134.03;;;15.62;100.00
52319;BME280;38258;51.148;14.068;2023-08-06T09:18:38;97130.56;;;15.88;100.00
52319;BME280;38258;51.148;14.068;2023-08-06T09:21:05;97137.59;;;15.87;100.00
52319;BME280;38258;51.148;14.068;2023-08-06T09:23:32;97131.72;;;15.71;100.00
52319;BME280;38258;51.148;14.068;2023-08-06T09:25:59;97138.69;;;15.72;100.00
52319;BME280;38258;51.148;14.068;2023-08-06T09:28:36;97131.72;;;15.96;100.00
52319;BME280;38258;51.148;14.068;2023-08-06T09:31:05;97116.75;;;15.58;100.00
52319;BME280;38258;51.148;14.068;2023-08-06T09:33:31;97133.81;;;15.91;100.00
52319;BME280;38258;51.148;14.068;2023-08-06T09:36:07;97130.84;;;16.09;100.00
52319;BME280;38258;51.148;14.068;2023-08-06T09:38:38;97131.84;;;16.32;100.00
52319;BME280;38258;51.148;14.068;2023-08-06T09:41:05;97131.94;;;16.31;100.00
52319;BME280;38258;51.148;14.068;2023-08-06T09:43:39;97128.34;;;16.56;100.00
52319;BME280;38258;51.148;14.068;2023-08-06T09:46:11;97121.34;;;16.68;100.00
52319;BME280;38258;51.148;14.068;2023-08-06T09:48:38;97133.06;;;16.39;100.00
52319;BME280;38258;51.148;14.068;2023-08-06T09:51:08;97126.47;;;16.58;100.00
52319;BME280;38258;51.148;14.068;2023-08-06T09:53:36;97130.34;;;16.41;100.00
52319;BME280;38258;51.148;14.068;2023-08-06T09:56:04;97127.03;;;16.50;100.00
52319;BME280;38258;51.148;14.068;2023-08-06T09:58:31;97121.31;;;16.92;100.00
52319;BME280;38258;51.148;14.068;2023-08-06T10:01:00;97112.34;;;16.71;100.00
52319;BME280;38258;51.148;14.068;2023-08-06T10:03:30;97121.94;;;16.23;100.00
52319;BME280;38258;51.148;14.068;2023-08-06T10:05:58;97120.50;;;16.19;100.00
52319;BME280;38258;51.148;14.068;2023-08-06T10:08:29;97119.84;;;16.52;100.00
52319;BME280;38258;51.148;14.068;2023-08-06T10:10:55;97110.41;;;16.61;100.00
52319;BME280;38258;51.148;14.068;2023-08-06T10:13:23;97114.34;;;16.56;100.00
52319;BME280;38258;51.148;14.068;2023-08-06T10:15:51;97108.81;;;16.59;100.00
52319;BME280;38258;51.148;14.068;2023-08-06T10:18:19;97104.09;;;16.27;100.00
52319;BME280;38258;51.148;14.068;2023-08-06T10:20:48;97111.69;;;16.31;100.00
52319;BME280;38258;51.148;14.068;2023-08-06T10:23:14;97097.72;;;16.42;100.00
52319;BME280;38258;51.148;14.068;2023-08-06T10:25:53;97103.56;;;16.34;100.00
52319;BME280;38258;51.148;14.068;2023-08-06T10:28:21;97101.00;;;16.33;100.00
52319;BME280;38258;51.148;14.068;2023-08-06T10:30:48;97095.16;;;16.16;100.00
52319;BME280;38258;51.148;14.068;2023-08-06T10:33:15;97097.56;;;16.19;100.00
52319;BME280;38258;51.148;14.068;2023-08-06T10:35:44;97092.44;;;16.18;100.00
52319;BME280;38258;51.148;14.068;2023-08-06T10:38:12;97089.72;;;16.06;100.00
52319;BME280;38258;51.148;14.068;2023-08-06T10:40:47;97075.00;;;15.91;100.00
52319;BME280;38258;51.148;14.068;2023-08-06T10:43:26;97079.47;;;16.15;100.00
52319;BME280;38258;51.148;14.068;2023-08-06T10:45:54;97077.81;;;16.01;100.00
52319;BME280;38258;51.148;14.068;2023-08-06T10:48:29;97078.25;;;15.94;100.00
52319;BME280;38258;51.148;14.068;2023-08-06T10:50:56;97072.22;;;16.05;100.00
52319;BME280;38258;51.148;14.068;2023-08-06T10:53:23;97065.91;;;15.69;100.00
52319;BME280;38258;51.148;14.068;2023-08-06T10:55:50;97069.38;;;15.82;100.00
52319;BME280;38258;51.148;14.068;2023-08-06T10:58:17;97067.97;;;16.40;100.00
52319;BME280;38258;51.148;14.068;2023-08-06T11:00:46;97067.34;;;16.12;100.00
52319;BME280;38258;51.148;14.068;2023-08-06T11:03:14;97061.88;;;16.02;100.00
52319;BME280;38258;51.148;14.068;2023-08-06T11:05:48;97057.84;;;16.34;100.00
52319;BME280;38258;51.148;14.068;2023-08-06T11:08:23;97062.00;;;16.25;100.00
52319;BME280;38258;51.148;14.068;2023-08-06T11:10:50;97060.22;;;16.50;100.00
52319;BME280;38258;51.148;14.068;2023-08-06T11:13:17;97059.81;;;16.19;100.00
52319;BME280;38258;51.148;14.068;2023-08-06T11:15:46;97052.56;;;16.09;100.00
52319;BME280;38258;51.148;14.068;2023-08-06T11:18:14;97050.06;;;16.08;100.00
52319;BME280;38258;51.148;14.068;2023-08-06T11:20:41;97049.38;;;16.17;100.00
52319;BME280;38258;51.148;14.068;2023-08-06T11:23:10;97047.81;;;16.39;100.00
52319;BME280;38258;51.148;14.068;2023-08-06T11:25:37;97047.34;;;16.45;100.00
52319;BME280;38258;51.148;14.068;2023-08-06T11:28:11;97042.56;;;16.26;100.00
52319;BME280;38258;51.148;14.068;2023-08-06T11:30:38;97052.00;;;16.17;100.00
52319;BME280;38258;51.148;14.068;2023-08-06T11:33:07;97058.84;;;16.44;100.00
52319;BME280;38258;51.148;14.068;2023-08-06T11:35:35;97057.72;;;16.60;100.00
52319;BME280;38258;51.148;14.068;2023-08-06T11:38:02;97060.09;;;16.51;100.00
52319;BME280;38258;51.148;14.068;2023-08-06T11:40:30;97058.81;;;16.68;100.00
52319;BME280;38258;51.148;14.068;2023-08-06T11:42:58;97054.25;;;16.10;100.00
52319;BME280;38258;51.148;14.068;2023-08-06T11:45:26;97049.13;;;15.96;100.00
52319;BME280;38258;51.148;14.068;2023-08-06T11:47:53;97048.88;;;16.12;100.00
52319;BME280;38258;51.148;14.068;2023-08-06T11:50:25;97047.06;;;16.13;100.00
52319;BME280;38258;51.148;14.068;2023-08-06T11:52:57;97041.75;;;16.01;100.00
52319;BME280;38258;51.148;14.068;2023-08-06T11:55:26;97047.03;;;16.25;100.00
52319;BME280;38258;51.148;14.068;2023-08-06T11:57:53;97051.50;;;16.36;100.00
52319;BME280;38258;51.148;14.068;2023-08-06T12:00:24;97041.28;;;16.32;100.00
52319;BME280;38258;51.148;14.068;2023-08-06T12:02:51;97049.75;;;16.48;100.00
52319;BME280;38258;51.148;14.068;2023-08-06T12:05:21;97044.81;;;16.19;100.00
52319;BME280;38258;51.148;14.068;2023-08-06T12:07:52;97056.22;;;16.20;100.00
52319;BME280;38258;51.148;14.068;2023-08-06T12:10:24;97045.59;;;16.08;100.00
52319;BME280;38258;51.148;14.068;2023-08-06T12:12:51;97048.69;;;16.02;100.00
52319;BME280;38258;51.148;14.068;2023-08-06T12:15:18;97048.16;;;15.97;100.00
52319;BME280;38258;51.148;14.068;2023-08-06T12:17:45;97047.44;;;15.95;100.00
52319;BME280;38258;51.148;14.068;2023-08-06T12:20:12;97046.06;;;16.02;100.00
52319;BME280;38258;51.148;14.068;2023-08-06T12:22:38;97052.50;;;15.98;100.00
52319;BME280;38258;51.148;14.068;2023-08-06T12:25:09;97051.19;;;15.66;100.00
52319;BME280;38258;51.148;14.068;2023-08-06T12:27:38;97046.97;;;16.14;100.00
52319;BME280;38258;51.148;14.068;2023-08-06T12:30:06;97042.06;;;15.83;100.00
52319;BME280;38258;51.148;14.068;2023-08-06T12:32:33;97045.53;;;15.97;100.00
52319;BME280;38258;51.148;14.068;2023-08-06T12:35:00;97045.22;;;15.89;100.00
52319;BME280;38258;51.148;14.068;2023-08-06T12:37:28;97044.19;;;15.91;100.00
52319;BME280;38258;51.148;14.068;2023-08-06T12:39:54;97036.34;;;16.51;100.00
52319;BME280;38258;51.148;14.068;2023-08-06T12:42:23;97035.19;;;16.31;100.00
52319;BME280;38258;51.148;14.068;2023-08-06T12:44:49;97041.00;;;16.84;100.00